sensor_id;sensor_type;location;lat;lon;timestamp;P1;durP1;ratioP1;P2;durP2;ratioP2
46731;SDS011;32477;51.474;5.696;2022-09-09T00:06:50;5.22;;;2.20;;
46731;SDS011;32477;51.474;5.696;2022-09-09T00:09:28;3.05;;;2.05;;
46731;SDS011;32477;51.474;5.696;2022-09-09T00:12:05;4.45;;;2.30;;
46731;SDS011;32477;51.474;5.696;2022-09-09T00:14:50;3.55;;;2.42;;
46731;SDS011;32477;51.474;5.696;2022-09-09T00:20:38;4.78;;;2.47;;
46731;SDS011;32477;51.474;5.696;2022-09-09T00:28:19;8.30;;;2.53;;
46731;SDS011;32477;51.474;5.696;2022-09-09T00:30:47;9.10;;;2.67;;
46731;SDS011;32477;51.474;5.696;2022-09-09T00:33:13;5.32;;;2.80;;
46731;SDS011;32477;51.474;5.696;2022-09-09T00:35:51;4.63;;;2.45;;
46731;SDS011;32477;51.474;5.696;2022-09-09T00:38:24;9.43;;;3.03;;
46731;SDS011;32477;51.474;5.696;2022-09-09T00:44:21;7.47;;;3.00;;
46731;SDS011;32477;51.474;5.696;2022-09-09T00:49:59;8.55;;;2.65;;
46731;SDS011;32477;51.474;5.696;2022-09-09T00:52:37;6.93;;;2.47;;
46731;SDS011;32477;51.474;5.696;2022-09-09T00:57:58;8.82;;;2.30;;
46731;SDS011;32477;51.474;5.696;2022-09-09T01:00:25;3.47;;;2.50;;
46731;SDS011;32477;51.474;5.696;2022-09-09T01:03:17;11.48;;;2.30;;
46731;SDS011;32477;51.474;5.696;2022-09-09T01:14:30;10.85;;;2.72;;
46731;SDS011;32477;51.474;5.696;2022-09-09T01:17:14;6.45;;;2.55;;
46731;SDS011;32477;51.474;5.696;2022-09-09T01:22:18;5.30;;;2.85;;
46731;SDS011;32477;51.474;5.696;2022-09-09T01:27:53;7.60;;;2.78;;
46731;SDS011;32477;51.474;5.696;2022-09-09T01:30:37;17.40;;;4.03;;
46731;SDS011;32477;51.474;5.696;2022-09-09T01:33:04;8.45;;;3.33;;
46731;SDS011;32477;51.474;5.696;2022-09-09T01:35:44;6.80;;;3.10;;
46731;SDS011;32477;51.474;5.696;2022-09-09T01:38:20;4.72;;;3.17;;
46731;SDS011;32477;51.474;5.696;2022-09-09T01:40:47;7.65;;;3.45;;
46731;SDS011;32477;51.474;5.696;2022-09-09T01:43:13;9.70;;;4.53;;
46731;SDS011;32477;51.474;5.696;2022-09-09T01:45:39;8.45;;;3.60;;
46731;SDS011;32477;51.474;5.696;2022-09-09T01:48:07;18.45;;;3.60;;
46731;SDS011;32477;51.474;5.696;2022-09-09T01:50:33;7.47;;;3.30;;
46731;SDS011;32477;51.474;5.696;2022-09-09T01:52:59;9.05;;;3.92;;
46731;SDS011;32477;51.474;5.696;2022-09-09T01:55:31;6.43;;;4.03;;
46731;SDS011;32477;51.474;5.696;2022-09-09T01:58:24;10.70;;;4.03;;
46731;SDS011;32477;51.474;5.696;2022-09-09T02:04:02;11.65;;;4.53;;
46731;SDS011;32477;51.474;5.696;2022-09-09T02:06:36;16.25;;;4.32;;
46731;SDS011;32477;51.474;5.696;2022-09-09T02:09:05;9.63;;;4.28;;
46731;SDS011;32477;51.474;5.696;2022-09-09T02:11:33;24.75;;;4.78;;
46731;SDS011;32477;51.474;5.696;2022-09-09T02:14:00;7.80;;;4.03;;
46731;SDS011;32477;51.474;5.696;2022-09-09T02:19:47;8.27;;;4.32;;
46731;SDS011;32477;51.474;5.696;2022-09-09T02:22:19;13.43;;;3.88;;
46731;SDS011;32477;51.474;5.696;2022-09-09T02:24:47;13.57;;;4.40;;
46731;SDS011;32477;51.474;5.696;2022-09-09T02:27:23;10.85;;;4.22;;
46731;SDS011;32477;51.474;5.696;2022-09-09T02:29:50;6.55;;;4.10;;
46731;SDS011;32477;51.474;5.696;2022-09-09T02:32:19;7.38;;;4.25;;
46731;SDS011;32477;51.474;5.696;2022-09-09T02:34:53;9.65;;;4.32;;
46731;SDS011;32477;51.474;5.696;2022-09-09T02:37:24;10.70;;;4.72;;
46731;SDS011;32477;51.474;5.696;2022-09-09T02:39:56;8.32;;;3.90;;
46731;SDS011;32477;51.474;5.696;2022-09-09T02:42:22;8.70;;;4.00;;
46731;SDS011;32477;51.474;5.696;2022-09-09T02:44:48;9.00;;;3.63;;
46731;SDS011;32477;51.474;5.696;2022-09-09T02:47:16;15.30;;;4.25;;
46731;SDS011;32477;51.474;5.696;2022-09-09T02:49:59;11.80;;;4.35;;
46731;SDS011;32477;51.474;5.696;2022-09-09T02:55:20;15.48;;;4.70;;
46731;SDS011;32477;51.474;5.696;2022-09-09T02:57:53;8.88;;;3.78;;
46731;SDS011;32477;51.474;5.696;2022-09-09T03:00:23;15.13;;;4.10;;
46731;SDS011;32477;51.474;5.696;2022-09-09T03:02:50;13.35;;;3.88;;
46731;SDS011;32477;51.474;5.696;2022-09-09T03:05:16;9.55;;;3.70;;
46731;SDS011;32477;51.474;5.696;2022-09-09T03:07:42;12.63;;;3.83;;
46731;SDS011;32477;51.474;5.696;2022-09-09T03:10:07;16.60;;;3.83;;
46731;SDS011;32477;51.474;5.696;2022-09-09T03:12:35;17.80;;;4.13;;
46731;SDS011;32477;51.474;5.696;2022-09-09T03:15:00;9.98;;;3.72;;
46731;SDS011;32477;51.474;5.696;2022-09-09T03:17:26;22.15;;;4.20;;
46731;SDS011;32477;51.474;5.696;2022-09-09T03:19:53;7.20;;;3.80;;
46731;SDS011;32477;51.474;5.696;2022-09-09T03:22:20;7.68;;;3.30;;
46731;SDS011;32477;51.474;5.696;2022-09-09T03:24:46;12.48;;;4.00;;
46731;SDS011;32477;51.474;5.696;2022-09-09T03:27:12;19.50;;;4.38;;
46731;SDS011;32477;51.474;5.696;2022-09-09T03:29:39;11.30;;;3.88;;
46731;SDS011;32477;51.474;5.696;2022-09-09T03:32:05;7.38;;;3.60;;
46731;SDS011;32477;51.474;5.696;2022-09-09T03:34:31;13.43;;;4.13;;
46731;SDS011;32477;51.474;5.696;2022-09-09T03:36:56;9.35;;;3.55;;
46731;SDS011;32477;51.474;5.696;2022-09-09T03:39:22;12.88;;;3.78;;
46731;SDS011;32477;51.474;5.696;2022-09-09T03:41:48;11.85;;;4.00;;
46731;SDS011;32477;51.474;5.696;2022-09-09T03:44:14;10.43;;;3.50;;
46731;SDS011;32477;51.474;5.696;2022-09-09T03:46:39;12.70;;;4.25;;
46731;SDS011;32477;51.474;5.696;2022-09-09T03:49:05;11.98;;;3.67;;
46731;SDS011;32477;51.474;5.696;2022-09-09T03:51:31;10.00;;;4.00;;
46731;SDS011;32477;51.474;5.696;2022-09-09T03:53:56;12.15;;;3.75;;
46731;SDS011;32477;51.474;5.696;2022-09-09T03:56:23;9.85;;;3.90;;
46731;SDS011;32477;51.474;5.696;2022-09-09T03:58:49;12.88;;;3.83;;
46731;SDS011;32477;51.474;5.696;2022-09-09T04:01:15;6.45;;;3.95;;
46731;SDS011;32477;51.474;5.696;2022-09-09T04:03:43;11.70;;;3.83;;
46731;SDS011;32477;51.474;5.696;2022-09-09T04:06:10;19.73;;;3.78;;
46731;SDS011;32477;51.474;5.696;2022-09-09T04:08:38;9.68;;;3.33;;
46731;SDS011;32477;51.474;5.696;2022-09-09T04:11:04;10.45;;;5.25;;
46731;SDS011;32477;51.474;5.696;2022-09-09T04:13:31;7.18;;;3.70;;
46731;SDS011;32477;51.474;5.696;2022-09-09T04:15:59;18.73;;;4.30;;
46731;SDS011;32477;51.474;5.696;2022-09-09T04:18:25;10.50;;;3.10;;
46731;SDS011;32477;51.474;5.696;2022-09-09T04:20:53;11.55;;;3.70;;
46731;SDS011;32477;51.474;5.696;2022-09-09T04:23:22;10.40;;;3.67;;
46731;SDS011;32477;51.474;5.696;2022-09-09T04:25:52;10.82;;;3.58;;
46731;SDS011;32477;51.474;5.696;2022-09-09T04:28:20;9.85;;;3.42;;
46731;SDS011;32477;51.474;5.696;2022-09-09T04:30:48;7.25;;;3.30;;
46731;SDS011;32477;51.474;5.696;2022-09-09T04:33:14;15.55;;;3.70;;
46731;SDS011;32477;51.474;5.696;2022-09-09T04:35:44;8.38;;;2.80;;
46731;SDS011;32477;51.474;5.696;2022-09-09T04:38:11;12.55;;;3.08;;
46731;SDS011;32477;51.474;5.696;2022-09-09T04:40:37;10.02;;;3.17;;
46731;SDS011;32477;51.474;5.696;2022-09-09T04:43:08;11.32;;;3.15;;
46731;SDS011;32477;51.474;5.696;2022-09-09T04:45:34;15.57;;;3.17;;
46731;SDS011;32477;51.474;5.696;2022-09-09T04:48:00;8.30;;;3.63;;
46731;SDS011;32477;51.474;5.696;2022-09-09T04:50:27;12.13;;;3.70;;
46731;SDS011;32477;51.474;5.696;2022-09-09T04:52:53;16.15;;;3.00;;
46731;SDS011;32477;51.474;5.696;2022-09-09T04:55:19;13.68;;;3.55;;
46731;SDS011;32477;51.474;5.696;2022-09-09T04:57:46;9.07;;;3.40;;
46731;SDS011;32477;51.474;5.696;2022-09-09T05:00:11;13.30;;;2.95;;
46731;SDS011;32477;51.474;5.696;2022-09-09T05:02:38;11.88;;;3.50;;
46731;SDS011;32477;51.474;5.696;2022-09-09T05:05:04;19.27;;;3.45;;
46731;SDS011;32477;51.474;5.696;2022-09-09T05:07:30;19.23;;;4.00;;
46731;SDS011;32477;51.474;5.696;2022-09-09T05:09:56;7.85;;;3.13;;
46731;SDS011;32477;51.474;5.696;2022-09-09T05:12:22;11.10;;;3.33;;
46731;SDS011;32477;51.474;5.696;2022-09-09T05:14:51;15.35;;;3.55;;
46731;SDS011;32477;51.474;5.696;2022-09-09T05:17:16;19.60;;;4.30;;
46731;SDS011;32477;51.474;5.696;2022-09-09T05:19:43;15.98;;;3.75;;
46731;SDS011;32477;51.474;5.696;2022-09-09T05:22:09;12.10;;;3.05;;
46731;SDS011;32477;51.474;5.696;2022-09-09T05:24:37;14.43;;;3.20;;
46731;SDS011;32477;51.474;5.696;2022-09-09T05:27:03;16.58;;;3.35;;
46731;SDS011;32477;51.474;5.696;2022-09-09T05:29:29;14.52;;;3.78;;
46731;SDS011;32477;51.474;5.696;2022-09-09T05:31:54;11.55;;;3.25;;
46731;SDS011;32477;51.474;5.696;2022-09-09T05:34:20;12.85;;;3.92;;
46731;SDS011;32477;51.474;5.696;2022-09-09T05:36:46;15.48;;;3.10;;
46731;SDS011;32477;51.474;5.696;2022-09-09T05:39:12;16.60;;;2.90;;
46731;SDS011;32477;51.474;5.696;2022-09-09T05:41:38;14.55;;;3.25;;
46731;SDS011;32477;51.474;5.696;2022-09-09T05:44:03;8.23;;;3.10;;
46731;SDS011;32477;51.474;5.696;2022-09-09T05:46:30;13.32;;;3.20;;
46731;SDS011;32477;51.474;5.696;2022-09-09T05:48:55;14.30;;;2.63;;
46731;SDS011;32477;51.474;5.696;2022-09-09T05:51:22;12.45;;;3.92;;
46731;SDS011;32477;51.474;5.696;2022-09-09T05:53:51;16.25;;;4.28;;
46731;SDS011;32477;51.474;5.696;2022-09-09T05:56:18;15.23;;;4.55;;
46731;SDS011;32477;51.474;5.696;2022-09-09T05:58:46;21.75;;;4.40;;
46731;SDS011;32477;51.474;5.696;2022-09-09T06:01:13;10.75;;;3.20;;
46731;SDS011;32477;51.474;5.696;2022-09-09T06:03:41;14.68;;;3.08;;
46731;SDS011;32477;51.474;5.696;2022-09-09T06:06:10;19.33;;;3.30;;
46731;SDS011;32477;51.474;5.696;2022-09-09T06:08:38;9.93;;;2.90;;
46731;SDS011;32477;51.474;5.696;2022-09-09T06:11:38;11.02;;;2.58;;
46731;SDS011;32477;51.474;5.696;2022-09-09T06:13:56;10.43;;;2.33;;
46731;SDS011;32477;51.474;5.696;2022-09-09T06:16:23;7.60;;;2.95;;
46731;SDS011;32477;51.474;5.696;2022-09-09T06:18:52;7.75;;;2.47;;
46731;SDS011;32477;51.474;5.696;2022-09-09T06:21:23;9.07;;;2.40;;
46731;SDS011;32477;51.474;5.696;2022-09-09T06:23:49;11.60;;;2.25;;
46731;SDS011;32477;51.474;5.696;2022-09-09T06:26:20;13.23;;;2.80;;
46731;SDS011;32477;51.474;5.696;2022-09-09T06:28:48;9.02;;;2.80;;
46731;SDS011;32477;51.474;5.696;2022-09-09T06:31:20;10.10;;;4.18;;
46731;SDS011;32477;51.474;5.696;2022-09-09T06:33:50;6.95;;;2.35;;
46731;SDS011;32477;51.474;5.696;2022-09-09T06:36:19;8.30;;;2.40;;
46731;SDS011;32477;51.474;5.696;2022-09-09T06:38:46;13.20;;;2.35;;
46731;SDS011;32477;51.474;5.696;2022-09-09T06:41:13;11.15;;;2.70;;
46731;SDS011;32477;51.474;5.696;2022-09-09T06:43:40;8.75;;;2.17;;
46731;SDS011;32477;51.474;5.696;2022-09-09T06:46:09;11.45;;;3.10;;
46731;SDS011;32477;51.474;5.696;2022-09-09T06:48:45;7.40;;;2.20;;
46731;SDS011;32477;51.474;5.696;2022-09-09T06:51:12;7.88;;;2.35;;
46731;SDS011;32477;51.474;5.696;2022-09-09T06:53:43;13.82;;;2.00;;
46731;SDS011;32477;51.474;5.696;2022-09-09T06:58:39;5.53;;;1.75;;
46731;SDS011;32477;51.474;5.696;2022-09-09T07:01:09;16.17;;;2.22;;
46731;SDS011;32477;51.474;5.696;2022-09-09T07:03:39;16.67;;;2.33;;
46731;SDS011;32477;51.474;5.696;2022-09-09T07:06:07;9.25;;;2.28;;
46731;SDS011;32477;51.474;5.696;2022-09-09T07:08:39;8.75;;;1.90;;
46731;SDS011;32477;51.474;5.696;2022-09-09T07:11:05;8.98;;;2.20;;
46731;SDS011;32477;51.474;5.696;2022-09-09T07:13:32;7.68;;;1.80;;
46731;SDS011;32477;51.474;5.696;2022-09-09T07:16:08;10.90;;;1.90;;
46731;SDS011;32477;51.474;5.696;2022-09-09T07:18:35;5.25;;;2.25;;
46731;SDS011;32477;51.474;5.696;2022-09-09T07:21:01;5.88;;;1.95;;
46731;SDS011;32477;51.474;5.696;2022-09-09T07:23:29;8.48;;;1.92;;
46731;SDS011;32477;51.474;5.696;2022-09-09T07:25:56;7.00;;;1.70;;
46731;SDS011;32477;51.474;5.696;2022-09-09T07:28:22;7.45;;;1.80;;
46731;SDS011;32477;51.474;5.696;2022-09-09T07:30:55;6.45;;;1.58;;
46731;SDS011;32477;51.474;5.696;2022-09-09T07:33:26;9.18;;;1.55;;
46731;SDS011;32477;51.474;5.696;2022-09-09T07:35:52;7.72;;;1.77;;
46731;SDS011;32477;51.474;5.696;2022-09-09T07:38:19;8.13;;;1.40;;
46731;SDS011;32477;51.474;5.696;2022-09-09T07:40:45;9.45;;;1.50;;
46731;SDS011;32477;51.474;5.696;2022-09-09T07:43:11;11.70;;;2.00;;
46731;SDS011;32477;51.474;5.696;2022-09-09T07:45:37;9.63;;;1.92;;
46731;SDS011;32477;51.474;5.696;2022-09-09T07:48:03;9.27;;;2.10;;
46731;SDS011;32477;51.474;5.696;2022-09-09T07:50:29;14.20;;;2.22;;
46731;SDS011;32477;51.474;5.696;2022-09-09T07:52:54;9.63;;;1.75;;
46731;SDS011;32477;51.474;5.696;2022-09-09T07:55:21;12.50;;;1.70;;
46731;SDS011;32477;51.474;5.696;2022-09-09T07:57:50;8.57;;;2.00;;
46731;SDS011;32477;51.474;5.696;2022-09-09T08:00:16;11.18;;;2.28;;
46731;SDS011;32477;51.474;5.696;2022-09-09T08:02:41;10.82;;;1.77;;
46731;SDS011;32477;51.474;5.696;2022-09-09T08:05:07;6.03;;;1.65;;
46731;SDS011;32477;51.474;5.696;2022-09-09T08:07:33;8.77;;;2.15;;
46731;SDS011;32477;51.474;5.696;2022-09-09T08:09:59;14.70;;;1.83;;
46731;SDS011;32477;51.474;5.696;2022-09-09T08:12:24;8.27;;;1.48;;
46731;SDS011;32477;51.474;5.696;2022-09-09T08:14:50;13.20;;;2.38;;
46731;SDS011;32477;51.474;5.696;2022-09-09T08:17:16;8.55;;;2.05;;
46731;SDS011;32477;51.474;5.696;2022-09-09T08:19:42;9.40;;;1.52;;
46731;SDS011;32477;51.474;5.696;2022-09-09T08:22:09;8.52;;;1.70;;
46731;SDS011;32477;51.474;5.696;2022-09-09T08:24:34;12.60;;;1.73;;
46731;SDS011;32477;51.474;5.696;2022-09-09T08:27:00;8.98;;;1.42;;
46731;SDS011;32477;51.474;5.696;2022-09-09T08:29:26;8.27;;;1.63;;
46731;SDS011;32477;51.474;5.696;2022-09-09T08:31:54;6.00;;;1.52;;
46731;SDS011;32477;51.474;5.696;2022-09-09T08:34:22;8.13;;;1.85;;
46731;SDS011;32477;51.474;5.696;2022-09-09T08:36:49;11.70;;;2.00;;
46731;SDS011;32477;51.474;5.696;2022-09-09T08:39:16;7.97;;;2.13;;
46731;SDS011;32477;51.474;5.696;2022-09-09T08:52:54;5.05;;;1.42;;
46731;SDS011;32477;51.474;5.696;2022-09-09T08:58:14;8.27;;;1.45;;
46731;SDS011;32477;51.474;5.696;2022-09-09T09:00:47;4.50;;;1.17;;
46731;SDS011;32477;51.474;5.696;2022-09-09T09:03:40;6.07;;;1.70;;
46731;SDS011;32477;51.474;5.696;2022-09-09T09:12:10;9.93;;;1.63;;
46731;SDS011;32477;51.474;5.696;2022-09-09T09:14:47;7.95;;;1.65;;
46731;SDS011;32477;51.474;5.696;2022-09-09T09:17:14;11.05;;;1.35;;
46731;SDS011;32477;51.474;5.696;2022-09-09T09:19:48;9.75;;;1.55;;
46731;SDS011;32477;51.474;5.696;2022-09-09T09:22:19;9.93;;;1.83;;
46731;SDS011;32477;51.474;5.696;2022-09-09T09:25:19;9.60;;;1.70;;
46731;SDS011;32477;51.474;5.696;2022-09-09T09:36:13;14.50;;;1.52;;
46731;SDS011;32477;51.474;5.696;2022-09-09T09:38:52;7.68;;;1.77;;
46731;SDS011;32477;51.474;5.696;2022-09-09T09:41:28;8.70;;;1.60;;
46731;SDS011;32477;51.474;5.696;2022-09-09T09:43:56;9.60;;;2.70;;
46731;SDS011;32477;51.474;5.696;2022-09-09T09:46:22;8.48;;;1.90;;
46731;SDS011;32477;51.474;5.696;2022-09-09T09:49:00;10.35;;;2.47;;
46731;SDS011;32477;51.474;5.696;2022-09-09T09:51:28;9.82;;;2.10;;
46731;SDS011;32477;51.474;5.696;2022-09-09T09:54:03;5.80;;;1.23;;
46731;SDS011;32477;51.474;5.696;2022-09-09T09:56:38;4.43;;;1.42;;
46731;SDS011;32477;51.474;5.696;2022-09-09T09:59:05;8.85;;;1.30;;
46731;SDS011;32477;51.474;5.696;2022-09-09T10:01:44;5.70;;;1.65;;
46731;SDS011;32477;51.474;5.696;2022-09-09T10:04:19;9.38;;;1.73;;
46731;SDS011;32477;51.474;5.696;2022-09-09T10:06:48;3.92;;;1.25;;
46731;SDS011;32477;51.474;5.696;2022-09-09T10:09:24;6.53;;;1.38;;
46731;SDS011;32477;51.474;5.696;2022-09-09T10:11:53;4.72;;;1.48;;
46731;SDS011;32477;51.474;5.696;2022-09-09T10:17:09;7.82;;;1.88;;
46731;SDS011;32477;51.474;5.696;2022-09-09T10:22:52;10.70;;;1.67;;
46731;SDS011;32477;51.474;5.696;2022-09-09T10:25:50;8.93;;;1.42;;
46731;SDS011;32477;51.474;5.696;2022-09-09T10:31:42;10.70;;;1.27;;
46731;SDS011;32477;51.474;5.696;2022-09-09T10:34:41;4.85;;;1.55;;
46731;SDS011;32477;51.474;5.696;2022-09-09T10:40:49;7.68;;;1.42;;
46731;SDS011;32477;51.474;5.696;2022-09-09T10:43:28;9.10;;;1.77;;
46731;SDS011;32477;51.474;5.696;2022-09-09T10:46:04;7.22;;;1.10;;
46731;SDS011;32477;51.474;5.696;2022-09-09T10:51:51;8.63;;;1.60;;
46731;SDS011;32477;51.474;5.696;2022-09-09T10:54:32;7.53;;;1.58;;
46731;SDS011;32477;51.474;5.696;2022-09-09T11:00:05;11.93;;;2.95;;
46731;SDS011;32477;51.474;5.696;2022-09-09T11:02:39;10.15;;;2.47;;
46731;SDS011;32477;51.474;5.696;2022-09-09T11:05:10;14.05;;;2.80;;
46731;SDS011;32477;51.474;5.696;2022-09-09T11:08:24;9.80;;;2.70;;
46731;SDS011;32477;51.474;5.696;2022-09-09T11:13:43;10.32;;;2.50;;
46731;SDS011;32477;51.474;5.696;2022-09-09T11:19:08;10.63;;;2.53;;
46731;SDS011;32477;51.474;5.696;2022-09-09T11:21:37;10.45;;;3.20;;
46731;SDS011;32477;51.474;5.696;2022-09-09T11:24:13;11.32;;;2.20;;
46731;SDS011;32477;51.474;5.696;2022-09-09T11:26:49;10.85;;;2.70;;
46731;SDS011;32477;51.474;5.696;2022-09-09T11:32:07;4.80;;;1.40;;
46731;SDS011;32477;51.474;5.696;2022-09-09T11:40:08;4.97;;;1.10;;
46731;SDS011;32477;51.474;5.696;2022-09-09T11:42:46;13.93;;;2.30;;
46731;SDS011;32477;51.474;5.696;2022-09-09T11:45:23;3.45;;;1.02;;
46731;SDS011;32477;51.474;5.696;2022-09-09T11:48:02;5.70;;;2.08;;
46731;SDS011;32477;51.474;5.696;2022-09-09T11:50:35;6.95;;;1.50;;
46731;SDS011;32477;51.474;5.696;2022-09-09T11:53:15;6.43;;;1.40;;
46731;SDS011;32477;51.474;5.696;2022-09-09T11:55:45;9.00;;;1.80;;
46731;SDS011;32477;51.474;5.696;2022-09-09T12:00:41;5.35;;;1.65;;
46731;SDS011;32477;51.474;5.696;2022-09-09T12:08:41;8.18;;;1.77;;
46731;SDS011;32477;51.474;5.696;2022-09-09T12:11:10;7.40;;;1.88;;
46731;SDS011;32477;51.474;5.696;2022-09-09T12:13:36;5.88;;;1.60;;
46731;SDS011;32477;51.474;5.696;2022-09-09T12:16:02;8.55;;;2.33;;
46731;SDS011;32477;51.474;5.696;2022-09-09T12:18:34;3.72;;;1.48;;
46731;SDS011;32477;51.474;5.696;2022-09-09T12:26:51;11.90;;;1.73;;
46731;SDS011;32477;51.474;5.696;2022-09-09T12:29:41;4.75;;;1.40;;
46731;SDS011;32477;51.474;5.696;2022-09-09T12:32:25;5.45;;;1.42;;
46731;SDS011;32477;51.474;5.696;2022-09-09T12:34:55;3.42;;;1.50;;
46731;SDS011;32477;51.474;5.696;2022-09-09T12:37:29;4.05;;;1.73;;
46731;SDS011;32477;51.474;5.696;2022-09-09T12:39:57;7.85;;;2.20;;
46731;SDS011;32477;51.474;5.696;2022-09-09T12:42:29;5.32;;;1.67;;
46731;SDS011;32477;51.474;5.696;2022-09-09T12:47:22;7.60;;;1.83;;
46731;SDS011;32477;51.474;5.696;2022-09-09T12:49:53;7.78;;;2.10;;
46731;SDS011;32477;51.474;5.696;2022-09-09T12:54:58;9.18;;;2.03;;
46731;SDS011;32477;51.474;5.696;2022-09-09T12:57:29;3.97;;;1.30;;
46731;SDS011;32477;51.474;5.696;2022-09-09T13:00:06;5.90;;;1.90;;
46731;SDS011;32477;51.474;5.696;2022-09-09T13:02:55;5.68;;;1.80;;
46731;SDS011;32477;51.474;5.696;2022-09-09T13:05:42;11.93;;;2.08;;
46731;SDS011;32477;51.474;5.696;2022-09-09T13:08:08;7.00;;;1.58;;
46731;SDS011;32477;51.474;5.696;2022-09-09T13:10:37;7.13;;;1.67;;
46731;SDS011;32477;51.474;5.696;2022-09-09T13:13:50;6.47;;;1.48;;
46731;SDS011;32477;51.474;5.696;2022-09-09T13:15:56;6.97;;;1.88;;
46731;SDS011;32477;51.474;5.696;2022-09-09T13:18:24;5.15;;;1.73;;
46731;SDS011;32477;51.474;5.696;2022-09-09T13:20:55;5.45;;;1.30;;
46731;SDS011;32477;51.474;5.696;2022-09-09T13:23:30;6.03;;;1.73;;
46731;SDS011;32477;51.474;5.696;2022-09-09T13:25:58;7.28;;;1.60;;
46731;SDS011;32477;51.474;5.696;2022-09-09T13:28:26;5.28;;;1.40;;
46731;SDS011;32477;51.474;5.696;2022-09-09T13:31:04;5.25;;;1.73;;
46731;SDS011;32477;51.474;5.696;2022-09-09T13:33:36;4.60;;;1.27;;
46731;SDS011;32477;51.474;5.696;2022-09-09T13:36:04;5.70;;;1.73;;
46731;SDS011;32477;51.474;5.696;2022-09-09T13:38:33;7.85;;;1.45;;
46731;SDS011;32477;51.474;5.696;2022-09-09T13:41:05;10.52;;;1.60;;
46731;SDS011;32477;51.474;5.696;2022-09-09T13:43:43;4.90;;;1.35;;
46731;SDS011;32477;51.474;5.696;2022-09-09T13:54:02;7.53;;;1.60;;
46731;SDS011;32477;51.474;5.696;2022-09-09T13:56:32;8.57;;;1.52;;
46731;SDS011;32477;51.474;5.696;2022-09-09T13:58:58;4.55;;;1.30;;
46731;SDS011;32477;51.474;5.696;2022-09-09T14:01:24;3.95;;;1.20;;
46731;SDS011;32477;51.474;5.696;2022-09-09T14:03:50;5.03;;;1.33;;
46731;SDS011;32477;51.474;5.696;2022-09-09T14:06:16;3.58;;;1.35;;
46731;SDS011;32477;51.474;5.696;2022-09-09T14:08:43;5.75;;;1.70;;
46731;SDS011;32477;51.474;5.696;2022-09-09T14:11:11;7.75;;;1.58;;
46731;SDS011;32477;51.474;5.696;2022-09-09T14:13:38;5.97;;;1.45;;
46731;SDS011;32477;51.474;5.696;2022-09-09T14:16:04;9.65;;;1.10;;
46731;SDS011;32477;51.474;5.696;2022-09-09T14:18:29;6.57;;;1.55;;
46731;SDS011;32477;51.474;5.696;2022-09-09T14:20:55;5.50;;;1.60;;
46731;SDS011;32477;51.474;5.696;2022-09-09T14:23:23;5.93;;;1.10;;
46731;SDS011;32477;51.474;5.696;2022-09-09T14:25:49;5.97;;;1.52;;
46731;SDS011;32477;51.474;5.696;2022-09-09T14:28:16;2.85;;;0.90;;
46731;SDS011;32477;51.474;5.696;2022-09-09T14:30:42;4.70;;;1.30;;
46731;SDS011;32477;51.474;5.696;2022-09-09T14:33:09;4.00;;;1.38;;
46731;SDS011;32477;51.474;5.696;2022-09-09T14:35:37;6.40;;;1.50;;
46731;SDS011;32477;51.474;5.696;2022-09-09T14:38:03;8.20;;;1.15;;
46731;SDS011;32477;51.474;5.696;2022-09-09T14:40:30;4.95;;;1.20;;
46731;SDS011;32477;51.474;5.696;2022-09-09T14:42:56;2.83;;;1.02;;
46731;SDS011;32477;51.474;5.696;2022-09-09T14:45:22;2.55;;;1.08;;
46731;SDS011;32477;51.474;5.696;2022-09-09T14:47:49;7.50;;;1.38;;
46731;SDS011;32477;51.474;5.696;2022-09-09T14:50:16;3.95;;;1.45;;
46731;SDS011;32477;51.474;5.696;2022-09-09T14:52:42;3.47;;;1.20;;
46731;SDS011;32477;51.474;5.696;2022-09-09T14:55:08;2.83;;;1.17;;
46731;SDS011;32477;51.474;5.696;2022-09-09T14:57:34;6.38;;;1.33;;
46731;SDS011;32477;51.474;5.696;2022-09-09T15:00:01;7.38;;;1.33;;
46731;SDS011;32477;51.474;5.696;2022-09-09T15:02:28;7.20;;;1.60;;
46731;SDS011;32477;51.474;5.696;2022-09-09T15:04:54;5.45;;;1.40;;
46731;SDS011;32477;51.474;5.696;2022-09-09T15:07:23;4.72;;;1.23;;
46731;SDS011;32477;51.474;5.696;2022-09-09T15:09:49;4.75;;;1.20;;
46731;SDS011;32477;51.474;5.696;2022-09-09T15:12:15;3.97;;;1.00;;
46731;SDS011;32477;51.474;5.696;2022-09-09T15:14:43;3.00;;;1.08;;
46731;SDS011;32477;51.474;5.696;2022-09-09T15:17:09;4.97;;;1.42;;
46731;SDS011;32477;51.474;5.696;2022-09-09T15:19:36;4.60;;;1.20;;
46731;SDS011;32477;51.474;5.696;2022-09-09T15:22:02;5.40;;;1.27;;
46731;SDS011;32477;51.474;5.696;2022-09-09T15:24:32;2.00;;;0.82;;
46731;SDS011;32477;51.474;5.696;2022-09-09T15:26:58;6.03;;;1.45;;
46731;SDS011;32477;51.474;5.696;2022-09-09T15:29:24;5.43;;;1.42;;
46731;SDS011;32477;51.474;5.696;2022-09-09T15:31:49;5.95;;;1.67;;
46731;SDS011;32477;51.474;5.696;2022-09-09T15:34:15;6.55;;;1.08;;
46731;SDS011;32477;51.474;5.696;2022-09-09T15:36:41;5.15;;;1.25;;
46731;SDS011;32477;51.474;5.696;2022-09-09T15:39:09;2.40;;;1.00;;
46731;SDS011;32477;51.474;5.696;2022-09-09T15:41:37;9.38;;;1.50;;
46731;SDS011;32477;51.474;5.696;2022-09-09T15:44:04;3.90;;;1.40;;
46731;SDS011;32477;51.474;5.696;2022-09-09T15:46:34;6.35;;;1.52;;
46731;SDS011;32477;51.474;5.696;2022-09-09T15:49:06;4.80;;;1.52;;
46731;SDS011;32477;51.474;5.696;2022-09-09T15:54:07;8.38;;;1.70;;
46731;SDS011;32477;51.474;5.696;2022-09-09T15:56:33;6.63;;;1.63;;
46731;SDS011;32477;51.474;5.696;2022-09-09T15:59:00;4.57;;;0.98;;
46731;SDS011;32477;51.474;5.696;2022-09-09T16:01:28;4.15;;;1.27;;
46731;SDS011;32477;51.474;5.696;2022-09-09T16:03:56;3.47;;;0.90;;
46731;SDS011;32477;51.474;5.696;2022-09-09T16:06:23;2.55;;;1.10;;
46731;SDS011;32477;51.474;5.696;2022-09-09T16:08:50;7.80;;;1.70;;
46731;SDS011;32477;51.474;5.696;2022-09-09T16:11:18;7.90;;;1.27;;
46731;SDS011;32477;51.474;5.696;2022-09-09T16:13:47;6.05;;;1.40;;
46731;SDS011;32477;51.474;5.696;2022-09-09T16:16:14;7.25;;;1.55;;
46731;SDS011;32477;51.474;5.696;2022-09-09T16:18:42;6.28;;;2.33;;
46731;SDS011;32477;51.474;5.696;2022-09-09T16:21:16;14.55;;;3.47;;
46731;SDS011;32477;51.474;5.696;2022-09-09T16:23:44;5.53;;;1.50;;
46731;SDS011;32477;51.474;5.696;2022-09-09T16:26:10;3.95;;;1.23;;
46731;SDS011;32477;51.474;5.696;2022-09-09T16:28:37;4.28;;;1.15;;
46731;SDS011;32477;51.474;5.696;2022-09-09T16:31:04;1.63;;;1.00;;
46731;SDS011;32477;51.474;5.696;2022-09-09T16:33:31;3.63;;;0.90;;
46731;SDS011;32477;51.474;5.696;2022-09-09T16:35:57;4.20;;;0.98;;
46731;SDS011;32477;51.474;5.696;2022-09-09T16:38:22;2.78;;;1.13;;
46731;SDS011;32477;51.474;5.696;2022-09-09T16:40:49;2.17;;;0.85;;
46731;SDS011;32477;51.474;5.696;2022-09-09T16:43:15;3.90;;;1.02;;
46731;SDS011;32477;51.474;5.696;2022-09-09T16:45:41;3.22;;;0.93;;
46731;SDS011;32477;51.474;5.696;2022-09-09T16:48:08;6.75;;;1.30;;
46731;SDS011;32477;51.474;5.696;2022-09-09T16:50:34;4.78;;;1.77;;
46731;SDS011;32477;51.474;5.696;2022-09-09T16:52:59;6.38;;;2.50;;
46731;SDS011;32477;51.474;5.696;2022-09-09T16:55:27;4.88;;;1.25;;
46731;SDS011;32477;51.474;5.696;2022-09-09T16:57:54;4.70;;;1.70;;
46731;SDS011;32477;51.474;5.696;2022-09-09T17:00:19;9.27;;;2.63;;
46731;SDS011;32477;51.474;5.696;2022-09-09T17:02:45;8.73;;;2.08;;
46731;SDS011;32477;51.474;5.696;2022-09-09T17:05:11;7.32;;;1.48;;
46731;SDS011;32477;51.474;5.696;2022-09-09T17:07:37;7.05;;;1.17;;
46731;SDS011;32477;51.474;5.696;2022-09-09T17:10:04;1.88;;;0.95;;
46731;SDS011;32477;51.474;5.696;2022-09-09T17:12:30;8.20;;;1.65;;
46731;SDS011;32477;51.474;5.696;2022-09-09T17:14:57;8.23;;;2.10;;
46731;SDS011;32477;51.474;5.696;2022-09-09T17:17:24;12.10;;;2.17;;